sensor_id;sensor_type;location;lat;lon;timestamp;P1;durP1;ratioP1;P2;durP2;ratioP2
80187;SDS011;73735;52.134;5.436;2024-03-08T00:00:08;24.70;;;10.40;;
80187;SDS011;73735;52.134;5.436;2024-03-08T00:02:39;25.55;;;10.52;;
80187;SDS011;73735;52.134;5.436;2024-03-08T00:05:06;21.30;;;10.32;;
80187;SDS011;73735;52.134;5.436;2024-03-08T00:07:35;21.48;;;10.82;;
80187;SDS011;73735;52.134;5.436;2024-03-08T00:10:05;24.98;;;10.27;;
80187;SDS011;73735;52.134;5.436;2024-03-08T00:12:33;22.33;;;10.00;;
80187;SDS011;73735;52.134;5.436;2024-03-08T00:15:00;24.33;;;10.10;;
80187;SDS011;73735;52.134;5.436;2024-03-08T00:17:27;26.15;;;11.30;;
80187;SDS011;73735;52.134;5.436;2024-03-08T00:19:53;24.85;;;10.30;;
80187;SDS011;73735;52.134;5.436;2024-03-08T00:22:20;24.92;;;10.55;;
80187;SDS011;73735;52.134;5.436;2024-03-08T00:24:48;26.02;;;11.13;;
80187;SDS011;73735;52.134;5.436;2024-03-08T00:27:16;22.25;;;10.48;;
80187;SDS011;73735;52.134;5.436;2024-03-08T00:29:43;25.63;;;10.65;;
80187;SDS011;73735;52.134;5.436;2024-03-08T00:32:09;23.50;;;10.93;;
80187;SDS011;73735;52.134;5.436;2024-03-08T00:34:37;25.20;;;10.43;;
80187;SDS011;73735;52.134;5.436;2024-03-08T00:37:04;22.85;;;10.43;;
80187;SDS011;73735;52.134;5.436;2024-03-08T00:39:30;22.60;;;10.25;;
80187;SDS011;73735;52.134;5.436;2024-03-08T00:41:57;24.52;;;10.82;;
80187;SDS011;73735;52.134;5.436;2024-03-08T00:44:23;24.38;;;10.50;;
80187;SDS011;73735;52.134;5.436;2024-03-08T00:46:51;24.98;;;10.27;;
80187;SDS011;73735;52.134;5.436;2024-03-08T00:49:20;23.27;;;9.65;;
80187;SDS011;73735;52.134;5.436;2024-03-08T00:51:47;24.20;;;10.32;;
80187;SDS011;73735;52.134;5.436;2024-03-08T00:54:14;23.23;;;10.00;;
80187;SDS011;73735;52.134;5.436;2024-03-08T00:56:42;24.13;;;10.50;;
80187;SDS011;73735;52.134;5.436;2024-03-08T00:59:09;22.88;;;10.20;;
80187;SDS011;73735;52.134;5.436;2024-03-08T01:01:35;23.60;;;10.23;;
80187;SDS011;73735;52.134;5.436;2024-03-08T01:04:02;24.67;;;10.55;;
80187;SDS011;73735;52.134;5.436;2024-03-08T01:06:28;21.48;;;10.60;;
80187;SDS011;73735;52.134;5.436;2024-03-08T01:08:55;24.70;;;10.68;;
80187;SDS011;73735;52.134;5.436;2024-03-08T01:11:21;24.52;;;11.55;;
80187;SDS011;73735;52.134;5.436;2024-03-08T01:13:48;25.20;;;10.85;;
80187;SDS011;73735;52.134;5.436;2024-03-08T01:16:15;27.13;;;10.05;;
80187;SDS011;73735;52.134;5.436;2024-03-08T01:18:43;20.98;;;10.15;;
80187;SDS011;73735;52.134;5.436;2024-03-08T01:21:10;25.48;;;12.35;;
80187;SDS011;73735;52.134;5.436;2024-03-08T01:23:37;26.58;;;11.15;;
80187;SDS011;73735;52.134;5.436;2024-03-08T01:26:03;26.15;;;10.98;;
80187;SDS011;73735;52.134;5.436;2024-03-08T01:28:30;23.10;;;10.52;;
80187;SDS011;73735;52.134;5.436;2024-03-08T01:30:57;21.08;;;10.93;;
80187;SDS011;73735;52.134;5.436;2024-03-08T01:33:24;22.60;;;10.48;;
80187;SDS011;73735;52.134;5.436;2024-03-08T01:35:55;23.80;;;11.23;;
80187;SDS011;73735;52.134;5.436;2024-03-08T01:38:23;26.48;;;10.95;;
80187;SDS011;73735;52.134;5.436;2024-03-08T01:40:49;22.08;;;9.88;;
80187;SDS011;73735;52.134;5.436;2024-03-08T01:45:43;24.30;;;10.48;;
80187;SDS011;73735;52.134;5.436;2024-03-08T01:48:10;26.13;;;11.68;;
80187;SDS011;73735;52.134;5.436;2024-03-08T01:50:38;21.35;;;10.40;;
80187;SDS011;73735;52.134;5.436;2024-03-08T01:53:06;23.67;;;9.98;;
80187;SDS011;73735;52.134;5.436;2024-03-08T01:55:36;24.75;;;11.15;;
80187;SDS011;73735;52.134;5.436;2024-03-08T01:58:03;24.67;;;10.82;;
80187;SDS011;73735;52.134;5.436;2024-03-08T02:00:32;23.42;;;9.63;;
80187;SDS011;73735;52.134;5.436;2024-03-08T02:03:00;26.73;;;11.50;;
80187;SDS011;73735;52.134;5.436;2024-03-08T02:05:28;24.27;;;10.63;;
80187;SDS011;73735;52.134;5.436;2024-03-08T02:07:54;21.05;;;10.35;;
80187;SDS011;73735;52.134;5.436;2024-03-08T02:10:21;25.05;;;10.57;;
80187;SDS011;73735;52.134;5.436;2024-03-08T02:12:48;21.73;;;10.80;;
80187;SDS011;73735;52.134;5.436;2024-03-08T02:15:15;24.23;;;10.43;;
80187;SDS011;73735;52.134;5.436;2024-03-08T02:17:41;22.98;;;10.95;;
80187;SDS011;73735;52.134;5.436;2024-03-08T02:20:08;23.55;;;10.40;;
80187;SDS011;73735;52.134;5.436;2024-03-08T02:22:36;23.30;;;10.80;;
80187;SDS011;73735;52.134;5.436;2024-03-08T02:25:03;24.98;;;11.18;;
80187;SDS011;73735;52.134;5.436;2024-03-08T02:27:31;25.42;;;10.35;;
80187;SDS011;73735;52.134;5.436;2024-03-08T02:29:59;25.25;;;11.02;;
80187;SDS011;73735;52.134;5.436;2024-03-08T02:32:26;27.50;;;11.50;;
80187;SDS011;73735;52.134;5.436;2024-03-08T02:34:56;25.75;;;10.85;;
80187;SDS011;73735;52.134;5.436;2024-03-08T02:37:23;24.45;;;11.43;;
80187;SDS011;73735;52.134;5.436;2024-03-08T02:39:49;23.33;;;10.50;;
80187;SDS011;73735;52.134;5.436;2024-03-08T02:42:16;23.45;;;10.77;;
80187;SDS011;73735;52.134;5.436;2024-03-08T02:47:10;22.92;;;10.38;;
80187;SDS011;73735;52.134;5.436;2024-03-08T02:49:36;22.58;;;9.88;;
80187;SDS011;73735;52.134;5.436;2024-03-08T02:52:04;23.88;;;10.65;;
80187;SDS011;73735;52.134;5.436;2024-03-08T02:54:31;24.27;;;10.82;;
80187;SDS011;73735;52.134;5.436;2024-03-08T02:56:57;25.58;;;10.20;;
80187;SDS011;73735;52.134;5.436;2024-03-08T02:59:24;21.40;;;10.60;;
80187;SDS011;73735;52.134;5.436;2024-03-08T03:01:50;25.50;;;11.25;;
80187;SDS011;73735;52.134;5.436;2024-03-08T03:04:16;21.38;;;10.02;;
80187;SDS011;73735;52.134;5.436;2024-03-08T03:06:43;23.52;;;11.23;;
80187;SDS011;73735;52.134;5.436;2024-03-08T03:09:09;23.13;;;10.48;;
80187;SDS011;73735;52.134;5.436;2024-03-08T03:11:36;23.17;;;10.98;;
80187;SDS011;73735;52.134;5.436;2024-03-08T03:14:04;22.25;;;10.90;;
80187;SDS011;73735;52.134;5.436;2024-03-08T03:16:30;24.58;;;11.68;;
80187;SDS011;73735;52.134;5.436;2024-03-08T03:18:57;28.42;;;11.40;;
80187;SDS011;73735;52.134;5.436;2024-03-08T03:21:27;22.35;;;11.10;;
80187;SDS011;73735;52.134;5.436;2024-03-08T03:23:57;23.55;;;10.27;;
80187;SDS011;73735;52.134;5.436;2024-03-08T03:26:25;24.10;;;10.90;;
80187;SDS011;73735;52.134;5.436;2024-03-08T03:28:52;24.85;;;11.35;;
80187;SDS011;73735;52.134;5.436;2024-03-08T03:31:19;22.92;;;10.30;;
80187;SDS011;73735;52.134;5.436;2024-03-08T03:33:46;23.48;;;10.95;;
80187;SDS011;73735;52.134;5.436;2024-03-08T03:36:13;23.30;;;11.05;;
80187;SDS011;73735;52.134;5.436;2024-03-08T03:38:40;22.85;;;11.30;;
80187;SDS011;73735;52.134;5.436;2024-03-08T03:41:07;24.85;;;11.40;;
80187;SDS011;73735;52.134;5.436;2024-03-08T03:43:37;25.80;;;12.65;;
80187;SDS011;73735;52.134;5.436;2024-03-08T03:46:06;23.55;;;11.45;;
80187;SDS011;73735;52.134;5.436;2024-03-08T03:51:00;26.85;;;11.57;;
80187;SDS011;73735;52.134;5.436;2024-03-08T03:53:27;22.27;;;11.57;;
80187;SDS011;73735;52.134;5.436;2024-03-08T03:55:53;26.23;;;11.85;;
80187;SDS011;73735;52.134;5.436;2024-03-08T03:58:20;20.73;;;11.13;;
80187;SDS011;73735;52.134;5.436;2024-03-08T04:00:48;24.33;;;11.05;;
80187;SDS011;73735;52.134;5.436;2024-03-08T04:03:15;23.45;;;11.13;;
80187;SDS011;73735;52.134;5.436;2024-03-08T04:05:43;23.02;;;11.35;;
80187;SDS011;73735;52.134;5.436;2024-03-08T04:08:09;22.25;;;11.25;;
80187;SDS011;73735;52.134;5.436;2024-03-08T04:10:36;23.35;;;10.75;;
80187;SDS011;73735;52.134;5.436;2024-03-08T04:13:02;24.00;;;11.63;;
80187;SDS011;73735;52.134;5.436;2024-03-08T04:15:30;26.30;;;11.57;;
80187;SDS011;73735;52.134;5.436;2024-03-08T04:17:56;25.40;;;11.73;;
80187;SDS011;73735;52.134;5.436;2024-03-08T04:20:23;23.23;;;11.07;;
80187;SDS011;73735;52.134;5.436;2024-03-08T04:22:50;25.90;;;11.68;;
80187;SDS011;73735;52.134;5.436;2024-03-08T04:25:17;26.90;;;12.30;;
80187;SDS011;73735;52.134;5.436;2024-03-08T04:27:43;22.92;;;11.05;;
80187;SDS011;73735;52.134;5.436;2024-03-08T04:30:10;23.08;;;12.57;;
80187;SDS011;73735;52.134;5.436;2024-03-08T04:32:38;24.13;;;11.68;;
80187;SDS011;73735;52.134;5.436;2024-03-08T04:35:05;24.85;;;11.57;;
80187;SDS011;73735;52.134;5.436;2024-03-08T04:37:32;24.38;;;11.65;;
80187;SDS011;73735;52.134;5.436;2024-03-08T04:39:58;24.05;;;11.70;;
80187;SDS011;73735;52.134;5.436;2024-03-08T04:42:25;26.50;;;11.13;;
80187;SDS011;73735;52.134;5.436;2024-03-08T04:44:54;25.48;;;11.30;;
80187;SDS011;73735;52.134;5.436;2024-03-08T04:47:21;21.23;;;11.20;;
80187;SDS011;73735;52.134;5.436;2024-03-08T04:49:48;23.00;;;10.88;;
80187;SDS011;73735;52.134;5.436;2024-03-08T04:52:14;24.55;;;11.40;;
80187;SDS011;73735;52.134;5.436;2024-03-08T04:54:41;25.40;;;11.02;;
80187;SDS011;73735;52.134;5.436;2024-03-08T04:57:07;27.10;;;13.07;;
80187;SDS011;73735;52.134;5.436;2024-03-08T04:59:35;20.80;;;10.73;;
80187;SDS011;73735;52.134;5.436;2024-03-08T05:02:02;24.23;;;11.15;;
80187;SDS011;73735;52.134;5.436;2024-03-08T05:04:29;24.02;;;11.88;;
80187;SDS011;73735;52.134;5.436;2024-03-08T05:06:55;23.65;;;11.90;;
80187;SDS011;73735;52.134;5.436;2024-03-08T05:09:22;21.33;;;10.68;;
80187;SDS011;73735;52.134;5.436;2024-03-08T05:11:50;25.98;;;12.07;;
80187;SDS011;73735;52.134;5.436;2024-03-08T05:14:16;22.90;;;11.10;;
80187;SDS011;73735;52.134;5.436;2024-03-08T05:16:44;22.15;;;10.48;;
80187;SDS011;73735;52.134;5.436;2024-03-08T05:19:18;22.80;;;12.02;;
80187;SDS011;73735;52.134;5.436;2024-03-08T05:21:46;24.00;;;11.27;;
80187;SDS011;73735;52.134;5.436;2024-03-08T05:24:14;26.17;;;11.82;;
80187;SDS011;73735;52.134;5.436;2024-03-08T05:26:42;21.58;;;10.88;;
80187;SDS011;73735;52.134;5.436;2024-03-08T05:29:08;23.15;;;11.05;;
80187;SDS011;73735;52.134;5.436;2024-03-08T05:31:37;27.20;;;11.95;;
80187;SDS011;73735;52.134;5.436;2024-03-08T05:34:11;25.42;;;11.50;;
80187;SDS011;73735;52.134;5.436;2024-03-08T05:36:41;25.85;;;11.93;;
80187;SDS011;73735;52.134;5.436;2024-03-08T05:39:13;25.60;;;11.75;;
80187;SDS011;73735;52.134;5.436;2024-03-08T05:41:39;22.58;;;11.20;;
80187;SDS011;73735;52.134;5.436;2024-03-08T05:44:06;24.08;;;11.07;;
80187;SDS011;73735;52.134;5.436;2024-03-08T05:46:34;23.20;;;11.35;;
80187;SDS011;73735;52.134;5.436;2024-03-08T05:49:02;23.63;;;11.75;;
80187;SDS011;73735;52.134;5.436;2024-03-08T05:51:32;25.52;;;11.55;;
80187;SDS011;73735;52.134;5.436;2024-03-08T05:54:01;23.15;;;11.38;;
80187;SDS011;73735;52.134;5.436;2024-03-08T05:56:29;25.42;;;11.68;;
80187;SDS011;73735;52.134;5.436;2024-03-08T05:58:56;24.95;;;12.07;;
80187;SDS011;73735;52.134;5.436;2024-03-08T06:01:22;23.92;;;11.63;;
80187;SDS011;73735;52.134;5.436;2024-03-08T06:03:49;22.52;;;11.55;;
80187;SDS011;73735;52.134;5.436;2024-03-08T06:06:15;24.48;;;10.75;;
80187;SDS011;73735;52.134;5.436;2024-03-08T06:08:44;26.17;;;11.73;;
80187;SDS011;73735;52.134;5.436;2024-03-08T06:11:10;25.35;;;12.55;;
80187;SDS011;73735;52.134;5.436;2024-03-08T06:13:37;25.90;;;12.50;;
80187;SDS011;73735;52.134;5.436;2024-03-08T06:16:03;26.63;;;12.65;;
80187;SDS011;73735;52.134;5.436;2024-03-08T06:18:30;28.40;;;11.63;;
80187;SDS011;73735;52.134;5.436;2024-03-08T06:20:57;24.40;;;11.35;;
80187;SDS011;73735;52.134;5.436;2024-03-08T06:23:24;27.02;;;12.02;;
80187;SDS011;73735;52.134;5.436;2024-03-08T06:25:50;23.55;;;11.85;;
80187;SDS011;73735;52.134;5.436;2024-03-08T06:28:17;25.27;;;12.02;;
80187;SDS011;73735;52.134;5.436;2024-03-08T06:30:43;23.65;;;11.88;;
80187;SDS011;73735;52.134;5.436;2024-03-08T06:33:09;28.92;;;13.32;;
80187;SDS011;73735;52.134;5.436;2024-03-08T06:35:37;26.77;;;12.30;;
80187;SDS011;73735;52.134;5.436;2024-03-08T06:38:06;24.13;;;12.18;;
80187;SDS011;73735;52.134;5.436;2024-03-08T06:40:32;27.45;;;12.20;;
80187;SDS011;73735;52.134;5.436;2024-03-08T06:42:59;25.77;;;11.63;;
80187;SDS011;73735;52.134;5.436;2024-03-08T06:45:25;25.77;;;12.15;;
80187;SDS011;73735;52.134;5.436;2024-03-08T06:47:52;27.33;;;13.27;;
80187;SDS011;73735;52.134;5.436;2024-03-08T06:50:18;27.75;;;11.00;;
80187;SDS011;73735;52.134;5.436;2024-03-08T06:52:45;26.92;;;12.27;;
80187;SDS011;73735;52.134;5.436;2024-03-08T06:55:14;25.75;;;12.40;;
80187;SDS011;73735;52.134;5.436;2024-03-08T06:57:40;24.98;;;11.88;;
80187;SDS011;73735;52.134;5.436;2024-03-08T07:00:07;22.48;;;11.77;;
80187;SDS011;73735;52.134;5.436;2024-03-08T07:02:44;27.85;;;11.93;;
80187;SDS011;73735;52.134;5.436;2024-03-08T07:05:19;26.08;;;12.23;;
80187;SDS011;73735;52.134;5.436;2024-03-08T07:07:46;26.38;;;11.93;;
80187;SDS011;73735;52.134;5.436;2024-03-08T07:10:15;25.65;;;11.90;;
80187;SDS011;73735;52.134;5.436;2024-03-08T07:12:42;22.80;;;11.65;;
80187;SDS011;73735;52.134;5.436;2024-03-08T07:15:09;24.23;;;11.50;;
80187;SDS011;73735;52.134;5.436;2024-03-08T07:17:42;23.73;;;12.35;;
80187;SDS011;73735;52.134;5.436;2024-03-08T07:20:10;28.92;;;13.48;;
80187;SDS011;73735;52.134;5.436;2024-03-08T07:22:39;28.50;;;13.70;;
80187;SDS011;73735;52.134;5.436;2024-03-08T07:25:06;24.50;;;12.75;;
80187;SDS011;73735;52.134;5.436;2024-03-08T07:27:52;25.13;;;12.43;;
80187;SDS011;73735;52.134;5.436;2024-03-08T07:30:20;25.33;;;12.23;;
80187;SDS011;73735;52.134;5.436;2024-03-08T07:33:06;26.08;;;13.38;;
80187;SDS011;73735;52.134;5.436;2024-03-08T07:35:33;31.10;;;12.38;;
80187;SDS011;73735;52.134;5.436;2024-03-08T07:38:04;29.02;;;12.43;;
80187;SDS011;73735;52.134;5.436;2024-03-08T07:40:40;26.55;;;12.65;;
80187;SDS011;73735;52.134;5.436;2024-03-08T07:43:11;25.08;;;12.10;;
80187;SDS011;73735;52.134;5.436;2024-03-08T07:45:38;25.00;;;12.25;;
80187;SDS011;73735;52.134;5.436;2024-03-08T07:48:05;27.48;;;12.60;;
80187;SDS011;73735;52.134;5.436;2024-03-08T07:50:39;24.40;;;13.23;;
80187;SDS011;73735;52.134;5.436;2024-03-08T07:53:07;30.33;;;13.20;;
80187;SDS011;73735;52.134;5.436;2024-03-08T07:55:34;25.08;;;13.13;;
80187;SDS011;73735;52.134;5.436;2024-03-08T07:58:02;28.85;;;13.23;;
80187;SDS011;73735;52.134;5.436;2024-03-08T08:00:29;23.83;;;12.40;;
80187;SDS011;73735;52.134;5.436;2024-03-08T08:02:57;26.63;;;13.60;;
80187;SDS011;73735;52.134;5.436;2024-03-08T08:05:24;26.45;;;13.45;;
80187;SDS011;73735;52.134;5.436;2024-03-08T08:07:50;28.20;;;12.82;;
80187;SDS011;73735;52.134;5.436;2024-03-08T08:10:19;22.95;;;12.30;;
80187;SDS011;73735;52.134;5.436;2024-03-08T08:12:51;28.50;;;13.18;;
80187;SDS011;73735;52.134;5.436;2024-03-08T08:15:17;28.42;;;12.75;;
80187;SDS011;73735;52.134;5.436;2024-03-08T08:17:44;28.10;;;13.75;;
80187;SDS011;73735;52.134;5.436;2024-03-08T08:20:11;28.55;;;12.30;;
80187;SDS011;73735;52.134;5.436;2024-03-08T08:22:42;28.58;;;13.18;;
80187;SDS011;73735;52.134;5.436;2024-03-08T08:25:12;24.73;;;12.30;;
80187;SDS011;73735;52.134;5.436;2024-03-08T08:27:39;23.77;;;12.02;;
80187;SDS011;73735;52.134;5.436;2024-03-08T08:30:06;25.40;;;12.63;;
80187;SDS011;73735;52.134;5.436;2024-03-08T08:32:35;24.73;;;12.70;;
80187;SDS011;73735;52.134;5.436;2024-03-08T08:35:03;28.20;;;13.35;;
80187;SDS011;73735;52.134;5.436;2024-03-08T08:37:30;27.05;;;13.05;;
80187;SDS011;73735;52.134;5.436;2024-03-08T08:39:57;29.02;;;15.18;;
80187;SDS011;73735;52.134;5.436;2024-03-08T08:42:24;27.95;;;13.52;;
80187;SDS011;73735;52.134;5.436;2024-03-08T08:44:50;30.90;;;14.45;;
80187;SDS011;73735;52.134;5.436;2024-03-08T08:47:20;29.50;;;13.50;;
80187;SDS011;73735;52.134;5.436;2024-03-08T08:49:46;28.80;;;13.57;;
80187;SDS011;73735;52.134;5.436;2024-03-08T08:52:13;30.15;;;13.98;;
80187;SDS011;73735;52.134;5.436;2024-03-08T08:54:43;26.98;;;12.70;;
80187;SDS011;73735;52.134;5.436;2024-03-08T08:57:14;25.55;;;12.35;;
80187;SDS011;73735;52.134;5.436;2024-03-08T08:59:44;25.00;;;12.85;;
80187;SDS011;73735;52.134;5.436;2024-03-08T09:02:11;26.20;;;12.88;;
80187;SDS011;73735;52.134;5.436;2024-03-08T09:04:43;25.85;;;13.02;;
80187;SDS011;73735;52.134;5.436;2024-03-08T09:07:12;25.88;;;12.00;;
80187;SDS011;73735;52.134;5.436;2024-03-08T09:09:39;25.17;;;12.40;;
80187;SDS011;73735;52.134;5.436;2024-03-08T09:12:08;24.50;;;12.73;;
80187;SDS011;73735;52.134;5.436;2024-03-08T09:14:36;26.02;;;12.13;;
80187;SDS011;73735;52.134;5.436;2024-03-08T09:17:02;28.48;;;12.45;;
80187;SDS011;73735;52.134;5.436;2024-03-08T09:19:29;26.15;;;12.65;;
80187;SDS011;73735;52.134;5.436;2024-03-08T09:21:56;26.42;;;12.93;;
80187;SDS011;73735;52.134;5.436;2024-03-08T09:24:22;25.13;;;12.20;;
80187;SDS011;73735;52.134;5.436;2024-03-08T09:26:48;24.77;;;12.63;;
80187;SDS011;73735;52.134;5.436;2024-03-08T09:29:15;26.35;;;13.15;;
80187;SDS011;73735;52.134;5.436;2024-03-08T09:31:42;27.50;;;12.70;;
80187;SDS011;73735;52.134;5.436;2024-03-08T09:34:08;26.48;;;12.90;;
80187;SDS011;73735;52.134;5.436;2024-03-08T09:36:42;26.95;;;12.30;;
80187;SDS011;73735;52.134;5.436;2024-03-08T09:39:08;28.83;;;13.25;;
80187;SDS011;73735;52.134;5.436;2024-03-08T09:41:35;28.10;;;12.85;;
80187;SDS011;73735;52.134;5.436;2024-03-08T09:44:01;25.75;;;13.15;;
80187;SDS011;73735;52.134;5.436;2024-03-08T09:46:30;25.48;;;12.15;;
80187;SDS011;73735;52.134;5.436;2024-03-08T09:48:56;28.08;;;12.63;;
80187;SDS011;73735;52.134;5.436;2024-03-08T09:51:25;23.80;;;12.45;;
80187;SDS011;73735;52.134;5.436;2024-03-08T09:53:54;24.63;;;12.88;;
80187;SDS011;73735;52.134;5.436;2024-03-08T09:56:21;27.20;;;12.07;;
80187;SDS011;73735;52.134;5.436;2024-03-08T09:58:49;28.42;;;12.48;;
80187;SDS011;73735;52.134;5.436;2024-03-08T10:01:57;26.42;;;11.52;;
80187;SDS011;73735;52.134;5.436;2024-03-08T10:04:23;26.60;;;12.20;;
80187;SDS011;73735;52.134;5.436;2024-03-08T10:06:50;25.27;;;12.35;;
80187;SDS011;73735;52.134;5.436;2024-03-08T10:09:16;24.08;;;11.75;;
80187;SDS011;73735;52.134;5.436;2024-03-08T10:11:43;25.95;;;11.63;;
80187;SDS011;73735;52.134;5.436;2024-03-08T10:14:09;27.05;;;13.07;;
80187;SDS011;73735;52.134;5.436;2024-03-08T10:16:40;24.20;;;11.60;;
80187;SDS011;73735;52.134;5.436;2024-03-08T10:19:06;26.38;;;13.00;;
80187;SDS011;73735;52.134;5.436;2024-03-08T10:21:34;28.63;;;12.63;;
80187;SDS011;73735;52.134;5.436;2024-03-08T10:24:02;22.23;;;10.25;;
80187;SDS011;73735;52.134;5.436;2024-03-08T10:26:29;27.23;;;13.25;;
80187;SDS011;73735;52.134;5.436;2024-03-08T10:28:56;23.70;;;11.57;;
80187;SDS011;73735;52.134;5.436;2024-03-08T10:31:24;25.33;;;12.18;;
80187;SDS011;73735;52.134;5.436;2024-03-08T10:33:50;23.13;;;12.07;;
80187;SDS011;73735;52.134;5.436;2024-03-08T10:36:17;22.90;;;12.00;;
80187;SDS011;73735;52.134;5.436;2024-03-08T10:38:45;24.30;;;11.05;;
80187;SDS011;73735;52.134;5.436;2024-03-08T10:41:14;24.58;;;12.30;;
80187;SDS011;73735;52.134;5.436;2024-03-08T10:46:50;22.08;;;11.38;;
80187;SDS011;73735;52.134;5.436;2024-03-08T10:49:30;21.83;;;11.20;;
80187;SDS011;73735;52.134;5.436;2024-03-08T10:52:04;25.48;;;12.10;;
80187;SDS011;73735;52.134;5.436;2024-03-08T10:54:34;21.10;;;11.27;;
80187;SDS011;73735;52.134;5.436;2024-03-08T10:57:09;22.15;;;11.55;;
80187;SDS011;73735;52.134;5.436;2024-03-08T10:59:38;23.40;;;12.00;;
80187;SDS011;73735;52.134;5.436;2024-03-08T11:02:05;23.80;;;11.80;;
80187;SDS011;73735;52.134;5.436;2024-03-08T11:04:32;24.52;;;12.00;;
80187;SDS011;73735;52.134;5.436;2024-03-08T11:07:00;21.25;;;10.77;;
80187;SDS011;73735;52.134;5.436;2024-03-08T11:09:35;21.38;;;11.00;;
80187;SDS011;73735;52.134;5.436;2024-03-08T11:12:22;25.38;;;11.75;;
80187;SDS011;73735;52.134;5.436;2024-03-08T11:14:56;22.27;;;11.57;;
80187;SDS011;73735;52.134;5.436;2024-03-08T11:19:56;23.10;;;10.90;;
80187;SDS011;73735;52.134;5.436;2024-03-08T11:22:28;24.98;;;11.80;;
80187;SDS011;73735;52.134;5.436;2024-03-08T11:25:02;23.15;;;11.23;;
80187;SDS011;73735;52.134;5.436;2024-03-08T11:27:36;30.88;;;12.10;;
80187;SDS011;73735;52.134;5.436;2024-03-08T11:30:04;20.75;;;11.30;;
80187;SDS011;73735;52.134;5.436;2024-03-08T11:32:46;23.10;;;10.73;;
80187;SDS011;73735;52.134;5.436;2024-03-08T11:35:20;22.80;;;10.63;;
80187;SDS011;73735;52.134;5.436;2024-03-08T11:37:49;19.67;;;10.18;;
80187;SDS011;73735;52.134;5.436;2024-03-08T11:40:15;23.30;;;10.68;;
80187;SDS011;73735;52.134;5.436;2024-03-08T11:42:46;22.30;;;10.75;;
80187;SDS011;73735;52.134;5.436;2024-03-08T11:45:18;23.05;;;11.40;;
80187;SDS011;73735;52.134;5.436;2024-03-08T11:47:47;19.05;;;10.18;;
80187;SDS011;73735;52.134;5.436;2024-03-08T11:50:16;20.40;;;10.70;;
80187;SDS011;73735;52.134;5.436;2024-03-08T11:52:45;21.98;;;10.93;;
80187;SDS011;73735;52.134;5.436;2024-03-08T11:55:12;18.05;;;9.63;;
80187;SDS011;73735;52.134;5.436;2024-03-08T12:00:06;17.63;;;9.43;;
80187;SDS011;73735;52.134;5.436;2024-03-08T12:02:59;17.35;;;8.73;;
80187;SDS011;73735;52.134;5.436;2024-03-08T12:05:27;18.48;;;9.75;;
80187;SDS011;73735;52.134;5.436;2024-03-08T12:07:57;17.80;;;9.85;;
80187;SDS011;73735;52.134;5.436;2024-03-08T12:10:28;19.98;;;9.77;;
80187;SDS011;73735;52.134;5.436;2024-03-08T12:12:57;18.83;;;9.38;;
80187;SDS011;73735;52.134;5.436;2024-03-08T12:15:25;19.13;;;9.45;;
80187;SDS011;73735;52.134;5.436;2024-03-08T12:17:54;17.10;;;8.63;;
80187;SDS011;73735;52.134;5.436;2024-03-08T12:20:23;17.40;;;8.98;;
80187;SDS011;73735;52.134;5.436;2024-03-08T12:22:52;16.98;;;8.65;;
80187;SDS011;73735;52.134;5.436;2024-03-08T12:25:20;17.85;;;9.23;;
80187;SDS011;73735;52.134;5.436;2024-03-08T12:27:47;16.20;;;8.75;;
80187;SDS011;73735;52.134;5.436;2024-03-08T12:30:17;15.25;;;7.60;;
80187;SDS011;73735;52.134;5.436;2024-03-08T12:32:53;19.75;;;9.23;;
80187;SDS011;73735;52.134;5.436;2024-03-08T12:35:20;19.73;;;9.70;;
80187;SDS011;73735;52.134;5.436;2024-03-08T12:37:49;17.30;;;8.88;;
80187;SDS011;73735;52.134;5.436;2024-03-08T12:40:17;18.88;;;9.48;;
80187;SDS011;73735;52.134;5.436;2024-03-08T12:42:45;16.73;;;9.18;;
80187;SDS011;73735;52.134;5.436;2024-03-08T12:45:15;18.75;;;9.63;;
80187;SDS011;73735;52.134;5.436;2024-03-08T12:47:42;17.20;;;8.80;;
80187;SDS011;73735;52.134;5.436;2024-03-08T12:50:10;21.55;;;9.00;;
80187;SDS011;73735;52.134;5.436;2024-03-08T12:52:36;20.00;;;9.15;;
80187;SDS011;73735;52.134;5.436;2024-03-08T12:55:03;19.90;;;9.40;;
80187;SDS011;73735;52.134;5.436;2024-03-08T12:57:33;19.02;;;9.32;;
80187;SDS011;73735;52.134;5.436;2024-03-08T13:00:01;18.85;;;9.82;;
80187;SDS011;73735;52.134;5.436;2024-03-08T13:02:29;19.52;;;9.95;;
80187;SDS011;73735;52.134;5.436;2024-03-08T13:04:58;19.33;;;9.75;;
80187;SDS011;73735;52.134;5.436;2024-03-08T13:07:25;18.85;;;9.68;;
80187;SDS011;73735;52.134;5.436;2024-03-08T13:09:52;17.90;;;9.57;;
80187;SDS011;73735;52.134;5.436;2024-03-08T13:12:26;20.98;;;9.82;;
80187;SDS011;73735;52.134;5.436;2024-03-08T13:14:52;19.33;;;9.13;;
80187;SDS011;73735;52.134;5.436;2024-03-08T13:17:21;19.83;;;9.88;;
80187;SDS011;73735;52.134;5.436;2024-03-08T13:19:48;20.02;;;10.52;;
80187;SDS011;73735;52.134;5.436;2024-03-08T13:22:15;22.13;;;9.52;;
80187;SDS011;73735;52.134;5.436;2024-03-08T13:24:42;18.83;;;10.02;;
80187;SDS011;73735;52.134;5.436;2024-03-08T13:27:11;19.80;;;9.73;;
80187;SDS011;73735;52.134;5.436;2024-03-08T13:29:48;20.60;;;9.95;;
80187;SDS011;73735;52.134;5.436;2024-03-08T13:32:15;18.13;;;9.73;;
80187;SDS011;73735;52.134;5.436;2024-03-08T13:34:42;19.25;;;9.20;;
80187;SDS011;73735;52.134;5.436;2024-03-08T13:37:10;19.70;;;9.38;;
80187;SDS011;73735;52.134;5.436;2024-03-08T13:39:37;23.50;;;10.48;;
80187;SDS011;73735;52.134;5.436;2024-03-08T13:42:10;19.20;;;9.63;;
80187;SDS011;73735;52.134;5.436;2024-03-08T13:44:45;19.77;;;9.43;;
80187;SDS011;73735;52.134;5.436;2024-03-08T13:47:15;16.98;;;8.88;;
80187;SDS011;73735;52.134;5.436;2024-03-08T13:49:43;16.23;;;8.77;;
80187;SDS011;73735;52.134;5.436;2024-03-08T13:52:10;20.33;;;9.70;;
80187;SDS011;73735;52.134;5.436;2024-03-08T13:54:38;17.98;;;8.85;;
80187;SDS011;73735;52.134;5.436;2024-03-08T13:57:05;18.05;;;9.55;;
80187;SDS011;73735;52.134;5.436;2024-03-08T13:59:33;18.52;;;9.70;;
80187;SDS011;73735;52.134;5.436;2024-03-08T14:02:01;18.88;;;9.68;;
80187;SDS011;73735;52.134;5.436;2024-03-08T14:06:55;18.33;;;9.32;;
80187;SDS011;73735;52.134;5.436;2024-03-08T14:09:27;20.92;;;9.25;;
80187;SDS011;73735;52.134;5.436;2024-03-08T14:14:21;17.70;;;9.13;;
80187;SDS011;73735;52.134;5.436;2024-03-08T14:16:51;20.52;;;10.07;;
80187;SDS011;73735;52.134;5.436;2024-03-08T14:19:24;20.38;;;9.82;;
80187;SDS011;73735;52.134;5.436;2024-03-08T14:21:50;20.10;;;9.82;;
80187;SDS011;73735;52.134;5.436;2024-03-08T14:24:19;20.02;;;9.55;;
80187;SDS011;73735;52.134;5.436;2024-03-08T14:26:46;21.02;;;10.15;;
80187;SDS011;73735;52.134;5.436;2024-03-08T14:29:15;18.65;;;9.88;;
80187;SDS011;73735;52.134;5.436;2024-03-08T14:31:41;19.77;;;10.10;;
80187;SDS011;73735;52.134;5.436;2024-03-08T14:34:09;21.98;;;10.93;;
80187;SDS011;73735;52.134;5.436;2024-03-08T14:36:36;19.83;;;10.40;;
80187;SDS011;73735;52.134;5.436;2024-03-08T14:39:04;18.63;;;9.70;;
80187;SDS011;73735;52.134;5.436;2024-03-08T14:41:30;20.02;;;10.25;;
80187;SDS011;73735;52.134;5.436;2024-03-08T14:43:57;20.08;;;10.63;;
80187;SDS011;73735;52.134;5.436;2024-03-08T14:46:23;18.55;;;9.82;;
80187;SDS011;73735;52.134;5.436;2024-03-08T14:48:50;20.63;;;9.93;;